createdAt,value
2022-08-26T00:00:11.618Z,76.69
2022-08-26T00:01:11.660Z,76.69
2022-08-26T00:02:11.677Z,76.79
2022-08-26T00:03:11.588Z,76.89
2022-08-26T00:04:11.701Z,76.69
2022-08-26T00:05:11.567Z,76.89
2022-08-26T00:06:11.562Z,76.39
2022-08-26T00:07:11.552Z,76.76
2022-08-26T00:08:13.064Z,76.79
2022-08-26T00:09:11.524Z,76.39
2022-08-26T00:10:11.510Z,76.79
2022-08-26T00:11:11.513Z,77.19
2022-08-26T00:12:12.364Z,77.19
2022-08-26T00:13:11.495Z,77.29
2022-08-26T00:14:11.465Z,77.09
2022-08-26T00:15:11.452Z,77.39
2022-08-26T00:16:11.663Z,77.09
2022-08-26T00:17:11.436Z,77.19
2022-08-26T00:18:21.819Z,77.09
2022-08-26T00:19:12.416Z,76.83
2022-08-26T00:20:11.399Z,77.03
2022-08-26T00:21:11.389Z,76.53
2022-08-26T00:22:11.389Z,76.56
2022-08-26T00:23:11.366Z,76.76
2022-08-26T00:24:11.351Z,76.97
2022-08-26T00:25:11.353Z,76.97
2022-08-26T00:26:11.348Z,76.56
2022-08-26T00:27:11.334Z,76.87
2022-08-26T00:28:11.318Z,76.76
2022-08-26T00:29:11.299Z,76.87
2022-08-26T00:30:11.295Z,76.73
2022-08-26T00:31:11.325Z,76.17
2022-08-26T00:32:11.520Z,76.37
2022-08-26T00:33:11.270Z,76.67
2022-08-26T00:34:12.067Z,76.33
2022-08-26T00:35:11.241Z,75.93
2022-08-26T00:36:19.872Z,76.33
2022-08-26T00:37:15.678Z,76.13
2022-08-26T00:38:11.211Z,75.83
2022-08-26T00:39:11.203Z,75.73
2022-08-26T00:40:11.296Z,76.03
2022-08-26T00:41:11.171Z,75.83
2022-08-26T00:42:11.175Z,75.93
2022-08-26T00:43:11.146Z,75.63
2022-08-26T00:44:11.263Z,75.63
2022-08-26T00:45:11.759Z,75.93
2022-08-26T00:46:11.201Z,75.63
2022-08-26T00:47:11.112Z,75.83
2022-08-26T00:48:11.085Z,75.63
2022-08-26T00:49:12.143Z,75.52
2022-08-26T00:50:11.067Z,75.73
2022-08-26T00:51:11.054Z,76.03
2022-08-26T00:52:12.108Z,75.63
2022-08-26T00:53:11.042Z,76.13
2022-08-26T00:54:11.019Z,76.03
2022-08-26T00:55:11.027Z,75.43
2022-08-26T00:56:11.004Z,75.93
2022-08-26T00:57:16.098Z,76.13
2022-08-26T00:58:10.985Z,75.83
2022-08-26T00:59:10.978Z,75.63
2022-08-26T01:00:10.964Z,75.87
2022-08-26T01:01:10.983Z,76.06
2022-08-26T01:02:21.304Z,76.67
2022-08-26T01:03:12.768Z,76.46
2022-08-26T01:04:10.950Z,76.67
2022-08-26T01:05:10.906Z,76.56
2022-08-26T01:06:12.604Z,76.67
2022-08-26T01:07:10.879Z,76.67
2022-08-26T01:08:10.866Z,76.97
2022-08-26T01:09:10.857Z,76.56
2022-08-26T01:10:10.890Z,76.56
2022-08-26T01:11:10.841Z,76.97
2022-08-26T01:12:10.819Z,76.67
2022-08-26T01:13:10.814Z,76.56
2022-08-26T01:14:10.799Z,76.17
2022-08-26T01:15:10.816Z,76.37
2022-08-26T01:16:10.828Z,76.56
2022-08-26T01:17:10.771Z,76.67
2022-08-26T01:18:10.754Z,77.00
2022-08-26T01:19:10.746Z,77.10
2022-08-26T01:20:11.492Z,77.40
2022-08-26T01:21:10.724Z,77.20
2022-08-26T01:22:10.710Z,77.50
2022-08-26T01:23:10.698Z,77.50
2022-08-26T01:24:10.694Z,77.20
2022-08-26T01:25:10.687Z,77.30
2022-08-26T01:26:19.492Z,77.20
2022-08-26T01:27:11.653Z,77.50
2022-08-26T01:28:10.646Z,77.60
2022-08-26T01:29:10.629Z,77.70
2022-08-26T01:30:10.634Z,77.20
2022-08-26T01:31:10.671Z,77.50
2022-08-26T01:32:10.610Z,77.70
2022-08-26T01:33:10.586Z,77.70
2022-08-26T01:34:10.581Z,77.40
2022-08-26T01:35:10.576Z,77.80
2022-08-26T01:36:10.560Z,78.10
2022-08-26T01:37:15.917Z,77.80
2022-08-26T01:38:11.544Z,77.70
2022-08-26T01:39:10.520Z,77.50
2022-08-26T01:40:10.608Z,77.54
2022-08-26T01:41:16.130Z,77.64
2022-08-26T01:42:11.503Z,77.74
2022-08-26T01:43:10.493Z,77.34
2022-08-26T01:44:10.468Z,77.34
2022-08-26T01:45:10.469Z,77.14
2022-08-26T01:46:10.521Z,77.34
2022-08-26T01:47:10.437Z,77.34
2022-08-26T01:48:10.439Z,77.34
2022-08-26T01:49:10.427Z,77.50
2022-08-26T01:50:10.409Z,77.74
2022-08-26T01:51:10.387Z,77.50
2022-08-26T01:52:10.768Z,77.84
2022-08-26T01:53:11.327Z,77.54
2022-08-26T01:54:12.091Z,77.84
2022-08-26T01:55:10.367Z,77.84
2022-08-26T01:56:10.337Z,77.54
2022-08-26T01:57:10.321Z,77.84
2022-08-26T01:58:10.328Z,77.84
2022-08-26T01:59:10.660Z,78.34
2022-08-26T02:00:10.581Z,78.24
2022-08-26T02:01:10.342Z,78.24
2022-08-26T02:02:10.270Z,78.04
2022-08-26T02:03:10.264Z,78.14
2022-08-26T02:04:10.340Z,77.87
2022-08-26T02:05:10.233Z,78.38
2022-08-26T02:06:10.335Z,78.64
2022-08-26T02:07:10.223Z,79.28
2022-08-26T02:08:10.219Z,79.14
2022-08-26T02:09:10.188Z,79.48
2022-08-26T02:10:10.188Z,80.08
2022-08-26T02:11:10.169Z,80.18
2022-08-26T02:12:10.368Z,80.04
2022-08-26T02:13:10.157Z,80.04
2022-08-26T02:14:10.136Z,79.74
2022-08-26T02:15:10.133Z,80.44
2022-08-26T02:16:17.420Z,80.65
2022-08-26T02:17:10.203Z,81.15
2022-08-26T02:18:14.133Z,81.04
2022-08-26T02:19:10.226Z,80.94
2022-08-26T02:20:14.891Z,81.15
2022-08-26T02:21:10.171Z,81.04
2022-08-26T02:22:10.065Z,80.54
2022-08-26T02:23:10.060Z,81.24
2022-08-26T02:24:10.048Z,81.15
2022-08-26T02:25:10.021Z,80.65
2022-08-26T02:26:10.028Z,81.38
2022-08-26T02:27:09.991Z,81.88
2022-08-26T02:28:09.986Z,81.65
2022-08-26T02:29:09.998Z,82.39
2022-08-26T02:30:09.983Z,82.59
2022-08-26T02:31:10.067Z,82.69
2022-08-26T02:32:09.942Z,82.59
2022-08-26T02:33:09.930Z,82.65
2022-08-26T02:34:10.730Z,82.59
2022-08-26T02:35:09.971Z,82.35
2022-08-26T02:36:09.898Z,82.79
2022-08-26T02:37:09.888Z,82.89
2022-08-26T02:38:11.085Z,82.69
2022-08-26T02:39:09.858Z,82.89
2022-08-26T02:40:09.977Z,82.89
2022-08-26T02:41:09.866Z,82.95
2022-08-26T02:42:09.829Z,83.09
2022-08-26T02:43:09.896Z,82.89
2022-08-26T02:44:09.816Z,83.19
2022-08-26T02:45:09.795Z,83.19
2022-08-26T02:46:09.814Z,82.89
2022-08-26T02:47:09.817Z,83.09
2022-08-26T02:48:09.764Z,83.39
2022-08-26T02:49:09.745Z,83.19
2022-08-26T02:50:09.779Z,83.59
2022-08-26T02:51:09.734Z,83.73
2022-08-26T02:52:09.727Z,83.73
2022-08-26T02:53:09.946Z,84.09
2022-08-26T02:54:09.700Z,83.73
2022-08-26T02:55:09.702Z,84.13
2022-08-26T02:56:09.683Z,84.63
2022-08-26T02:57:09.665Z,84.74
2022-08-26T02:58:09.705Z,84.53
2022-08-26T02:59:09.638Z,84.53
2022-08-26T03:00:09.634Z,84.63
2022-08-26T03:01:09.716Z,84.74
2022-08-26T03:02:09.661Z,84.53
2022-08-26T03:03:09.810Z,85.53
2022-08-26T03:04:09.614Z,85.24
2022-08-26T03:05:09.589Z,85.53
2022-08-26T03:06:09.567Z,85.24
2022-08-26T03:07:09.576Z,85.53
2022-08-26T03:08:09.550Z,85.63
2022-08-26T03:09:09.538Z,85.03
2022-08-26T03:10:09.564Z,85.83
2022-08-26T03:11:09.524Z,86.44
2022-08-26T03:12:09.502Z,86.14
2022-08-26T03:13:09.715Z,86.24
2022-08-26T03:14:09.484Z,86.04
2022-08-26T03:15:16.595Z,85.63
2022-08-26T03:16:09.639Z,85.74
2022-08-26T03:17:09.631Z,85.74
2022-08-26T03:18:09.438Z,86.84
2022-08-26T03:19:09.419Z,86.48
2022-08-26T03:20:09.413Z,86.68
2022-08-26T03:21:09.424Z,86.74
2022-08-26T03:22:09.441Z,87.08
2022-08-26T03:23:09.523Z,86.64
2022-08-26T03:24:09.397Z,86.84
2022-08-26T03:25:09.352Z,86.54
2022-08-26T03:26:10.885Z,86.64
2022-08-26T03:27:09.345Z,86.44
2022-08-26T03:28:09.677Z,87.24
2022-08-26T03:29:09.353Z,87.18
2022-08-26T03:30:11.742Z,86.84
2022-08-26T03:31:09.359Z,88.09
2022-08-26T03:32:09.298Z,87.78
2022-08-26T03:33:09.498Z,87.74
2022-08-26T03:34:09.270Z,87.68
2022-08-26T03:35:09.274Z,87.74
2022-08-26T03:36:09.237Z,87.44
2022-08-26T03:37:09.232Z,87.88
2022-08-26T03:38:09.255Z,87.98
2022-08-26T03:39:09.196Z,88.59
2022-08-26T03:40:09.214Z,88.89
2022-08-26T03:41:09.187Z,88.68
2022-08-26T03:42:09.184Z,88.48
2022-08-26T03:43:09.546Z,88.59
2022-08-26T03:44:09.159Z,88.79
2022-08-26T03:45:09.126Z,89.29
2022-08-26T03:46:09.193Z,89.29
2022-08-26T03:47:09.125Z,89.79
2022-08-26T03:48:09.127Z,89.79
2022-08-26T03:49:09.110Z,90.25
2022-08-26T03:50:09.093Z,90.25
2022-08-26T03:51:09.068Z,90.29
2022-08-26T03:52:09.056Z,89.75
2022-08-26T03:53:12.888Z,90.35
2022-08-26T03:54:09.062Z,89.75
2022-08-26T03:55:09.034Z,90.35
2022-08-26T03:56:09.037Z,90.45
2022-08-26T03:57:08.995Z,90.75
2022-08-26T03:58:09.005Z,90.45
2022-08-26T03:59:09.017Z,90.55
2022-08-26T04:00:08.970Z,90.65
2022-08-26T04:01:08.971Z,90.55
2022-08-26T04:02:11.708Z,90.95
2022-08-26T04:03:10.043Z,91.15
2022-08-26T04:04:08.938Z,91.75
2022-08-26T04:05:08.914Z,91.96
2022-08-26T04:06:08.905Z,91.85
2022-08-26T04:07:08.896Z,91.55
2022-08-26T04:08:08.890Z,91.55
2022-08-26T04:09:08.870Z,91.39
2022-08-26T04:10:08.878Z,91.55
2022-08-26T04:11:08.863Z,91.55
2022-08-26T04:12:08.840Z,91.89
2022-08-26T04:13:08.998Z,91.35
2022-08-26T04:14:08.817Z,92.00
2022-08-26T04:15:08.805Z,92.40
2022-08-26T04:16:08.809Z,91.85
2022-08-26T04:17:08.781Z,92.15
2022-08-26T04:18:08.787Z,92.35
2022-08-26T04:19:08.775Z,92.25
2022-08-26T04:20:08.744Z,92.15
2022-08-26T04:21:08.736Z,92.46
2022-08-26T04:22:08.727Z,92.35
2022-08-26T04:23:08.848Z,92.25
2022-08-26T04:24:11.998Z,92.55
2022-08-26T04:25:08.698Z,92.46
2022-08-26T04:26:08.697Z,92.46
2022-08-26T04:27:08.671Z,92.46
2022-08-26T04:28:08.662Z,92.15
2022-08-26T04:29:08.646Z,92.35
2022-08-26T04:30:08.897Z,91.75
2022-08-26T04:31:08.717Z,91.65
2022-08-26T04:32:08.616Z,92.05
2022-08-26T04:33:12.575Z,92.35
2022-08-26T04:34:08.626Z,92.15
2022-08-26T04:35:08.581Z,92.15
2022-08-26T04:36:08.584Z,92.46
2022-08-26T04:37:08.592Z,92.66
2022-08-26T04:38:08.554Z,92.76
2022-08-26T04:39:08.547Z,92.85
2022-08-26T04:40:08.575Z,92.55
2022-08-26T04:41:14.912Z,92.66
2022-08-26T04:42:09.514Z,92.25
2022-08-26T04:43:08.649Z,92.41
2022-08-26T04:44:08.490Z,91.96
2022-08-26T04:45:10.335Z,91.81
2022-08-26T04:46:08.574Z,92.71
2022-08-26T04:47:08.465Z,92.81
2022-08-26T04:48:08.456Z,92.71
2022-08-26T04:49:08.430Z,92.21
2022-08-26T04:50:08.421Z,92.01
2022-08-26T04:51:08.407Z,92.41
2022-08-26T04:52:08.442Z,93.11
2022-08-26T04:53:08.643Z,92.31
2022-08-26T04:54:08.375Z,92.15
2022-08-26T04:55:08.755Z,92.66
2022-08-26T04:56:08.359Z,92.61
2022-08-26T04:57:08.352Z,92.55
2022-08-26T04:58:08.358Z,92.76
2022-08-26T04:59:08.333Z,92.41
2022-08-26T05:00:09.313Z,92.61
2022-08-26T05:01:08.297Z,92.71
2022-08-26T05:02:08.421Z,93.26
2022-08-26T05:03:10.246Z,93.11
2022-08-26T05:04:08.419Z,93.01
2022-08-26T05:05:08.248Z,93.11
2022-08-26T05:06:08.243Z,92.66
2022-08-26T05:07:08.257Z,92.66
2022-08-26T05:08:08.227Z,93.01
2022-08-26T05:09:08.222Z,93.01
2022-08-26T05:10:08.922Z,93.31
2022-08-26T05:11:08.198Z,93.01
2022-08-26T05:12:08.203Z,92.51
2022-08-26T05:13:10.675Z,92.51
2022-08-26T05:14:08.156Z,92.51
2022-08-26T05:15:08.159Z,92.71
2022-08-26T05:16:08.158Z,92.71
2022-08-26T05:17:08.153Z,93.01
2022-08-26T05:18:08.112Z,93.01
2022-08-26T05:19:08.412Z,92.51
2022-08-26T05:20:08.087Z,92.41
2022-08-26T05:21:08.090Z,92.31
2022-08-26T05:22:08.068Z,92.51
2022-08-26T05:23:08.246Z,92.61
2022-08-26T05:24:08.053Z,92.51
2022-08-26T05:25:08.033Z,92.31
2022-08-26T05:26:08.033Z,92.61
2022-08-26T05:27:11.692Z,92.91
2022-08-26T05:28:08.001Z,92.61
2022-08-26T05:29:08.020Z,92.71
2022-08-26T05:30:07.979Z,92.61
2022-08-26T05:31:08.073Z,92.61
2022-08-26T05:32:07.959Z,92.51
2022-08-26T05:33:08.223Z,92.71
2022-08-26T05:34:08.529Z,93.01
2022-08-26T05:35:09.053Z,93.01
2022-08-26T05:36:07.916Z,92.51
2022-08-26T05:37:07.907Z,92.77
2022-08-26T05:38:12.270Z,92.57
2022-08-26T05:39:07.914Z,92.77
2022-08-26T05:40:07.943Z,92.47
2022-08-26T05:41:07.901Z,91.77
2022-08-26T05:42:07.841Z,91.97
2022-08-26T05:43:08.006Z,92.47
2022-08-26T05:44:07.889Z,92.16
2022-08-26T05:45:07.826Z,92.67
2022-08-26T05:46:07.859Z,92.67
2022-08-26T05:47:07.794Z,92.67
2022-08-26T05:48:07.787Z,92.47
2022-08-26T05:49:12.577Z,92.36
2022-08-26T05:50:08.803Z,91.97
2022-08-26T05:51:07.752Z,92.07
2022-08-26T05:52:07.732Z,92.16
2022-08-26T05:53:07.837Z,92.27
2022-08-26T05:54:07.717Z,92.27
2022-08-26T05:55:07.764Z,92.16
2022-08-26T05:56:07.689Z,92.07
2022-08-26T05:57:07.712Z,92.16
2022-08-26T05:58:07.665Z,91.97
2022-08-26T05:59:14.275Z,91.66
2022-08-26T06:00:08.682Z,92.07
2022-08-26T06:01:07.658Z,92.27
2022-08-26T06:02:07.624Z,92.07
2022-08-26T06:03:07.865Z,91.77
2022-08-26T06:04:07.598Z,92.07
2022-08-26T06:05:07.715Z,92.16
2022-08-26T06:06:07.591Z,92.27
2022-08-26T06:07:07.571Z,92.27
2022-08-26T06:08:07.575Z,92.27
2022-08-26T06:09:09.367Z,92.27
2022-08-26T06:10:30.943Z,92.36
2022-08-26T06:11:08.543Z,92.27
2022-08-26T06:12:08.518Z,92.16
2022-08-26T06:13:09.288Z,91.77
2022-08-26T06:14:07.490Z,91.77
2022-08-26T06:15:07.487Z,92.16
2022-08-26T06:16:07.522Z,91.27
2022-08-26T06:17:07.461Z,92.16
2022-08-26T06:18:07.483Z,92.27
2022-08-26T06:19:10.802Z,92.02
2022-08-26T06:20:07.417Z,91.82
2022-08-26T06:21:07.452Z,91.72
2022-08-26T06:22:07.400Z,91.82
2022-08-26T06:23:07.550Z,91.42
2022-08-26T06:24:07.377Z,91.66
2022-08-26T06:25:07.370Z,91.86
2022-08-26T06:26:07.350Z,91.42
2022-08-26T06:27:07.351Z,91.36
2022-08-26T06:28:07.351Z,91.86
2022-08-26T06:29:07.323Z,91.77
2022-08-26T06:30:07.308Z,91.72
2022-08-26T06:31:07.331Z,91.52
2022-08-26T06:32:07.304Z,91.42
2022-08-26T06:33:07.557Z,91.36
2022-08-26T06:34:10.532Z,91.12
2022-08-26T06:35:07.265Z,91.52
2022-08-26T06:36:08.242Z,91.42
2022-08-26T06:37:07.260Z,91.62
2022-08-26T06:38:07.246Z,91.27
2022-08-26T06:39:07.211Z,91.62
2022-08-26T06:40:07.264Z,91.72
2022-08-26T06:41:07.193Z,91.22
2022-08-26T06:42:07.179Z,90.92
2022-08-26T06:43:07.368Z,90.82
2022-08-26T06:44:07.153Z,90.82
2022-08-26T06:45:07.151Z,91.02
2022-08-26T06:46:07.175Z,90.72
2022-08-26T06:47:07.143Z,90.72
2022-08-26T06:48:07.120Z,90.42
2022-08-26T06:49:07.099Z,90.72
2022-08-26T06:50:07.091Z,90.62
2022-08-26T06:51:07.078Z,90.72
2022-08-26T06:52:07.095Z,90.78
2022-08-26T06:53:07.281Z,90.52
2022-08-26T06:54:07.043Z,90.52
2022-08-26T06:55:07.035Z,90.52
2022-08-26T06:56:07.019Z,90.72
2022-08-26T06:57:07.109Z,90.32
2022-08-26T06:58:07.019Z,90.37
2022-08-26T06:59:07.238Z,90.52
2022-08-26T07:00:07.002Z,90.58
2022-08-26T07:01:11.705Z,90.02
2022-08-26T07:02:07.030Z,90.42
2022-08-26T07:03:07.347Z,90.42
2022-08-26T07:04:07.905Z,90.78
2022-08-26T07:05:06.931Z,90.67
2022-08-26T07:06:06.907Z,90.02
2022-08-26T07:07:06.900Z,89.92
2022-08-26T07:08:06.884Z,89.92
2022-08-26T07:09:06.891Z,90.08
2022-08-26T07:10:06.972Z,89.92
2022-08-26T07:11:06.869Z,90.48
2022-08-26T07:12:07.425Z,90.72
2022-08-26T07:13:06.998Z,90.17
2022-08-26T07:14:06.837Z,90.22
2022-08-26T07:15:06.811Z,90.08
2022-08-26T07:16:06.855Z,89.48
2022-08-26T07:17:09.196Z,89.48
2022-08-26T07:18:07.785Z,89.92
2022-08-26T07:19:11.280Z,90.08
2022-08-26T07:20:06.751Z,90.17
2022-08-26T07:21:06.744Z,89.98
2022-08-26T07:22:06.746Z,90.48
2022-08-26T07:23:06.894Z,90.37
2022-08-26T07:24:06.708Z,90.37
2022-08-26T07:25:06.712Z,90.67
2022-08-26T07:26:06.691Z,90.78
2022-08-26T07:27:06.693Z,90.28
2022-08-26T07:28:06.669Z,89.78
2022-08-26T07:29:06.659Z,89.48
2022-08-26T07:30:06.641Z,89.48
2022-08-26T07:31:07.365Z,89.48
2022-08-26T07:32:06.621Z,90.08
2022-08-26T07:33:06.763Z,89.58
2022-08-26T07:34:06.600Z,89.28
2022-08-26T07:35:06.601Z,89.28
2022-08-26T07:36:06.583Z,89.37
2022-08-26T07:37:08.883Z,89.28
2022-08-26T07:38:06.553Z,89.28
2022-08-26T07:39:06.555Z,89.58
2022-08-26T07:40:06.570Z,89.37
2022-08-26T07:41:06.538Z,89.37
2022-08-26T07:42:07.600Z,89.07
2022-08-26T07:43:06.732Z,88.87
2022-08-26T07:44:06.489Z,88.93
2022-08-26T07:45:06.496Z,89.14
2022-08-26T07:46:06.467Z,89.14
2022-08-26T07:47:10.415Z,89.53
2022-08-26T07:48:07.439Z,89.14
2022-08-26T07:49:06.508Z,89.23
2022-08-26T07:50:06.419Z,89.43
2022-08-26T07:51:06.421Z,89.23
2022-08-26T07:52:06.396Z,88.93
2022-08-26T07:53:06.428Z,88.53
2022-08-26T07:54:06.375Z,88.64
2022-08-26T07:55:06.367Z,88.33
2022-08-26T07:56:06.353Z,88.53
2022-08-26T07:57:09.308Z,88.43
2022-08-26T07:58:06.332Z,88.53
2022-08-26T07:59:13.570Z,88.33
2022-08-26T08:00:07.309Z,88.23
2022-08-26T08:01:06.349Z,88.73
2022-08-26T08:02:06.302Z,88.64
2022-08-26T08:03:06.371Z,88.43
2022-08-26T08:04:06.263Z,88.23
2022-08-26T08:05:06.352Z,88.23
2022-08-26T08:06:06.311Z,88.23
2022-08-26T08:07:10.569Z,88.03
2022-08-26T08:08:27.326Z,88.33
2022-08-26T08:09:07.245Z,88.33
2022-08-26T08:10:09.765Z,88.33
2022-08-26T08:11:07.308Z,88.23
2022-08-26T08:12:06.195Z,88.19
2022-08-26T08:13:06.369Z,88.73
2022-08-26T08:14:08.411Z,88.73
2022-08-26T08:15:07.160Z,88.23
2022-08-26T08:16:14.206Z,88.03
2022-08-26T08:17:06.314Z,88.29
2022-08-26T08:18:06.213Z,88.09
2022-08-26T08:19:07.116Z,88.09
2022-08-26T08:20:06.097Z,88.19
2022-08-26T08:21:20.943Z,88.69
2022-08-26T08:22:17.250Z,88.49
2022-08-26T08:23:07.065Z,87.69
2022-08-26T08:24:06.043Z,87.99
2022-08-26T08:25:06.363Z,87.39
2022-08-26T08:26:06.020Z,87.59
2022-08-26T08:27:06.025Z,87.09
2022-08-26T08:28:06.108Z,87.29
2022-08-26T08:29:06.018Z,87.19
2022-08-26T08:30:05.973Z,87.29
2022-08-26T08:31:06.071Z,87.39
2022-08-26T08:32:06.037Z,87.39
2022-08-26T08:33:06.954Z,87.49
2022-08-26T08:34:05.941Z,87.19
2022-08-26T08:35:11.115Z,87.25
2022-08-26T08:36:06.911Z,87.49
2022-08-26T08:37:08.613Z,87.19
2022-08-26T08:38:05.966Z,87.39
2022-08-26T08:39:06.505Z,87.29
2022-08-26T08:40:05.958Z,87.39
2022-08-26T08:41:05.867Z,87.45
2022-08-26T08:42:05.843Z,87.59
2022-08-26T08:43:05.874Z,87.15
2022-08-26T08:44:05.831Z,87.25
2022-08-26T08:45:05.820Z,86.89
2022-08-26T08:46:05.867Z,86.45
2022-08-26T08:47:05.803Z,86.45
2022-08-26T08:48:05.831Z,86.45
2022-08-26T08:49:05.779Z,86.75
2022-08-26T08:50:05.758Z,86.85
2022-08-26T08:51:05.745Z,87.05
2022-08-26T08:52:05.747Z,86.75
2022-08-26T08:53:05.905Z,86.71
2022-08-26T08:54:05.724Z,86.31
2022-08-26T08:55:05.706Z,86.05
2022-08-26T08:56:05.697Z,86.91
2022-08-26T08:57:05.696Z,86.91
2022-08-26T08:58:05.814Z,86.61
2022-08-26T08:59:05.656Z,86.31
2022-08-26T09:00:05.656Z,86.61
2022-08-26T09:01:06.017Z,86.21
2022-08-26T09:02:05.716Z,86.01
2022-08-26T09:03:05.635Z,85.91
2022-08-26T09:04:05.629Z,86.21
2022-08-26T09:05:05.588Z,85.77
2022-08-26T09:06:05.577Z,85.87
2022-08-26T09:07:05.612Z,86.36
2022-08-26T09:08:06.566Z,86.36
2022-08-26T09:09:05.549Z,85.67
2022-08-26T09:10:05.537Z,85.27
2022-08-26T09:11:05.527Z,85.07
2022-08-26T09:12:05.510Z,85.57
2022-08-26T09:13:05.521Z,85.57
2022-08-26T09:14:05.488Z,85.27
2022-08-26T09:15:05.486Z,84.67
2022-08-26T09:16:05.469Z,84.57
2022-08-26T09:17:05.501Z,84.67
2022-08-26T09:18:05.743Z,85.07
2022-08-26T09:19:05.450Z,84.67
2022-08-26T09:20:05.419Z,85.17
2022-08-26T09:21:05.420Z,85.07
2022-08-26T09:22:09.636Z,84.77
2022-08-26T09:23:05.459Z,84.63
2022-08-26T09:24:05.389Z,85.23
2022-08-26T09:25:05.366Z,84.67
2022-08-26T09:26:05.356Z,84.37
2022-08-26T09:27:05.607Z,84.63
2022-08-26T09:28:05.419Z,84.77
2022-08-26T09:29:05.371Z,84.53
2022-08-26T09:30:05.312Z,84.53
2022-08-26T09:31:09.181Z,84.03
2022-08-26T09:32:06.290Z,83.87
2022-08-26T09:33:09.992Z,84.07
2022-08-26T09:34:06.279Z,84.57
2022-08-26T09:35:06.158Z,84.47
2022-08-26T09:36:05.241Z,84.17
2022-08-26T09:37:05.243Z,84.57
2022-08-26T09:38:06.134Z,84.07
2022-08-26T09:39:06.219Z,84.27
2022-08-26T09:40:05.270Z,84.27
2022-08-26T09:41:05.275Z,83.97
2022-08-26T09:42:05.184Z,83.87
2022-08-26T09:43:05.168Z,84.23
2022-08-26T09:44:05.156Z,84.13
2022-08-26T09:45:05.177Z,84.37
2022-08-26T09:46:05.184Z,84.43
2022-08-26T09:47:05.133Z,84.33
2022-08-26T09:48:05.114Z,84.23
2022-08-26T09:49:05.103Z,84.33
2022-08-26T09:50:05.114Z,84.03
2022-08-26T09:51:05.077Z,84.13
2022-08-26T09:52:05.068Z,84.23
2022-08-26T09:53:05.160Z,84.03
2022-08-26T09:54:05.654Z,84.03
2022-08-26T09:55:05.040Z,84.43
2022-08-26T09:56:05.042Z,84.43
2022-08-26T09:57:05.030Z,83.93
2022-08-26T09:58:08.705Z,84.33
2022-08-26T09:59:05.031Z,84.33
2022-08-26T10:00:05.011Z,84.03
2022-08-26T10:01:05.010Z,84.13
2022-08-26T10:02:04.963Z,84.43
2022-08-26T10:03:05.959Z,84.43
2022-08-26T10:04:04.978Z,83.83
2022-08-26T10:05:09.637Z,84.23
2022-08-26T10:06:04.934Z,84.13
2022-08-26T10:07:04.920Z,84.23
2022-08-26T10:08:04.890Z,82.83
2022-08-26T10:09:08.970Z,83.03
2022-08-26T10:10:04.874Z,83.00
2022-08-26T10:11:04.884Z,82.83
2022-08-26T10:12:04.859Z,82.93
2022-08-26T10:13:04.837Z,83.13
2022-08-26T10:14:04.834Z,82.59
2022-08-26T10:15:04.810Z,81.70
2022-08-26T10:16:05.628Z,82.20
2022-08-26T10:17:06.862Z,82.09
2022-08-26T10:18:04.792Z,82.39
2022-08-26T10:19:04.805Z,82.20
2022-08-26T10:20:04.764Z,82.09
2022-08-26T10:21:04.779Z,82.20
2022-08-26T10:22:04.736Z,82.20
2022-08-26T10:23:04.727Z,81.20
2022-08-26T10:24:04.715Z,81.06
2022-08-26T10:25:04.702Z,81.10
2022-08-26T10:26:04.716Z,82.15
2022-08-26T10:27:04.691Z,82.35
2022-08-26T10:28:04.786Z,82.45
2022-08-26T10:29:04.662Z,82.35
2022-08-26T10:30:04.670Z,82.06
2022-08-26T10:31:04.651Z,82.15
2022-08-26T10:32:04.688Z,81.46
2022-08-26T10:33:04.622Z,81.16
2022-08-26T10:34:04.605Z,81.20
2022-08-26T10:35:04.590Z,82.59
2022-08-26T10:36:04.591Z,82.26
2022-08-26T10:37:15.934Z,82.15
2022-08-26T10:38:05.601Z,82.15
2022-08-26T10:39:04.549Z,81.16
2022-08-26T10:40:04.610Z,80.86
2022-08-26T10:41:09.765Z,80.66
2022-08-26T10:42:05.531Z,80.96
2022-08-26T10:43:09.903Z,80.96
2022-08-26T10:44:05.577Z,81.16
2022-08-26T10:45:04.490Z,81.16
2022-08-26T10:46:04.566Z,80.46
2022-08-26T10:47:04.465Z,80.26
2022-08-26T10:48:04.457Z,80.06
2022-08-26T10:49:04.437Z,80.46
2022-08-26T10:50:04.437Z,80.42
2022-08-26T10:51:04.418Z,80.12
2022-08-26T10:52:04.405Z,79.43
2022-08-26T10:53:05.402Z,79.22
2022-08-26T10:54:04.391Z,79.09
2022-08-26T10:55:04.366Z,78.99
2022-08-26T10:56:04.362Z,78.19
2022-08-26T10:57:04.347Z,78.89
2022-08-26T10:58:07.308Z,79.09
2022-08-26T10:59:04.324Z,78.99
2022-08-26T11:00:04.351Z,79.19
2022-08-26T11:01:10.151Z,78.85
2022-08-26T11:02:05.294Z,79.15
2022-08-26T11:03:04.318Z,78.95
2022-08-26T11:04:04.337Z,77.46
2022-08-26T11:05:04.258Z,77.29
2022-08-26T11:06:04.248Z,77.59
2022-08-26T11:07:04.238Z,78.35
2022-08-26T11:08:04.232Z,78.69
2022-08-26T11:09:04.255Z,79.15
2022-08-26T11:10:04.209Z,79.25
2022-08-26T11:11:04.197Z,77.46
2022-08-26T11:12:10.017Z,77.86
2022-08-26T11:13:05.181Z,78.65
2022-08-26T11:14:04.195Z,78.65
2022-08-26T11:15:05.210Z,78.35
2022-08-26T11:16:04.191Z,78.85
2022-08-26T11:17:04.192Z,78.55
2022-08-26T11:18:04.118Z,78.65
2022-08-26T11:19:04.106Z,77.86
2022-08-26T11:20:07.438Z,77.36
2022-08-26T11:21:05.085Z,77.72
2022-08-26T11:22:05.091Z,78.16
2022-08-26T11:23:04.060Z,77.46
2022-08-26T11:24:04.051Z,78.02
2022-08-26T11:25:04.049Z,77.86
2022-08-26T11:26:04.033Z,78.16
2022-08-26T11:27:04.014Z,78.06
2022-08-26T11:28:04.143Z,78.45
2022-08-26T11:29:03.995Z,78.45
2022-08-26T11:30:03.984Z,78.35
2022-08-26T11:31:04.538Z,78.55
2022-08-26T11:32:04.036Z,78.91
2022-08-26T11:33:03.949Z,78.52
2022-08-26T11:34:03.957Z,78.12
2022-08-26T11:35:03.938Z,77.82
2022-08-26T11:36:12.376Z,77.52
2022-08-26T11:37:04.908Z,77.52
2022-08-26T11:38:03.902Z,77.62
2022-08-26T11:39:03.890Z,78.02
2022-08-26T11:40:04.070Z,77.42
2022-08-26T11:41:03.881Z,77.92
2022-08-26T11:42:03.864Z,78.52
2022-08-26T11:43:03.837Z,78.61
2022-08-26T11:44:03.830Z,78.02
2022-08-26T11:45:05.708Z,78.61
2022-08-26T11:46:03.902Z,78.12
2022-08-26T11:47:03.798Z,78.72
2022-08-26T11:48:03.784Z,78.91
2022-08-26T11:49:03.774Z,78.61
2022-08-26T11:50:03.774Z,79.01
2022-08-26T11:51:03.774Z,79.41
2022-08-26T11:52:03.746Z,79.11
2022-08-26T11:53:03.740Z,78.52
2022-08-26T11:54:03.724Z,78.52
2022-08-26T11:55:03.710Z,78.61
2022-08-26T11:56:03.701Z,78.31
2022-08-26T11:57:09.253Z,78.72
2022-08-26T11:58:05.743Z,78.72
2022-08-26T11:59:03.663Z,78.31
2022-08-26T12:00:03.666Z,78.91
2022-08-26T12:01:03.756Z,78.91
2022-08-26T12:02:03.649Z,78.91
2022-08-26T12:03:03.723Z,78.35
2022-08-26T12:04:03.752Z,78.45
2022-08-26T12:05:03.605Z,79.15
2022-08-26T12:06:03.610Z,78.45
2022-08-26T12:07:03.575Z,78.55
2022-08-26T12:08:03.596Z,79.15
2022-08-26T12:09:03.553Z,78.85
2022-08-26T12:10:03.561Z,79.15
2022-08-26T12:11:03.532Z,79.25
2022-08-26T12:12:03.550Z,78.65
2022-08-26T12:13:03.511Z,79.25
2022-08-26T12:14:03.504Z,79.15
2022-08-26T12:15:03.506Z,79.65
2022-08-26T12:16:03.586Z,79.75
2022-08-26T12:17:03.469Z,79.15
2022-08-26T12:18:03.463Z,79.55
2022-08-26T12:19:03.447Z,79.85
2022-08-26T12:20:03.435Z,79.55
2022-08-26T12:21:03.420Z,79.35
2022-08-26T12:22:03.428Z,78.85
2022-08-26T12:23:03.417Z,78.65
2022-08-26T12:24:03.391Z,78.85
2022-08-26T12:25:03.380Z,79.05
2022-08-26T12:26:03.367Z,78.16
2022-08-26T12:27:03.354Z,78.85
2022-08-26T12:28:03.383Z,78.45
2022-08-26T12:29:09.403Z,79.35
2022-08-26T12:30:04.324Z,79.15
2022-08-26T12:31:03.314Z,79.19
2022-08-26T12:32:03.396Z,79.79
2022-08-26T12:33:03.292Z,78.99
2022-08-26T12:34:04.304Z,79.09
2022-08-26T12:36:03.259Z,79.09
2022-08-26T12:37:03.247Z,78.99
2022-08-26T12:38:03.266Z,78.49
2022-08-26T12:39:03.241Z,79.09
2022-08-26T12:40:03.385Z,78.69
2022-08-26T12:41:03.199Z,79.09
2022-08-26T12:42:03.195Z,79.69
2022-08-26T12:43:03.191Z,79.43
2022-08-26T12:44:03.191Z,79.72
2022-08-26T12:45:03.155Z,78.92
2022-08-26T12:46:03.224Z,79.13
2022-08-26T12:47:03.142Z,79.22
2022-08-26T12:48:03.249Z,79.22
2022-08-26T12:49:03.139Z,79.93
2022-08-26T12:50:03.123Z,79.72
2022-08-26T12:51:03.094Z,79.03
2022-08-26T12:52:03.098Z,79.33
2022-08-26T12:53:03.067Z,79.13